Latest Weather Observations for Coldstream

IDV60901

Issued at 6:01 am EST Wednesday 4 May 2016 (issued every 10 minutes, with the page automatically refreshed every 10 minutes)

About weather observations | Map of Melbourne area stations | Latest observations for Melbourne area | Other Formats
Station Details ID: 086383 Name: COLDSTREAM Lat: -37.72 Lon: 145.41 Height: 83.0 m
Data from the previous 72 hours. | See also: Recent months at Coldstream
Date/Time
EST
Tmp

°C
App
Tmp
°C
Dew
Point
°C
Rel
Hum
%
Delta-T

°C
Wind Press
QNH
hPa
Press
MSL
hPa
Rain
since
9 am
mm
Dir
 
Spd
km/h
Gust
km/h
Spd
kts
Gust
kts
04/06:00am 3.4 1.9 3.0 97 0.2 CALM 0 0 0 0 1013.5 1013.6 8.0
04/05:30am 3.3 1.8 2.9 97 0.2 CALM 0 6 0 3 1013.0 1013.1 8.0
04/05:00am 3.7 1.8 3.1 96 0.2 SE 2 7 1 4 1012.6 1012.7 8.0
04/04:30am 3.7 2.2 3.0 95 0.3 CALM 0 0 0 0 1012.3 1012.4 8.0
04/04:00am 4.0 2.1 2.8 92 0.5 S 2 7 1 4 1011.9 1012.0 8.0
04/03:30am 5.0 3.5 2.9 86 0.9 CALM 0 0 0 0 1011.3 1011.4 8.0
04/03:00am 8.4 6.1 5.9 84 1.1 N 7 11 4 6 1010.7 1010.8 8.0
04/02:30am 8.2 6.6 6.2 87 0.9 NNW 4 9 2 5 1010.6 1010.7 8.0
04/02:00am 9.1 7.9 6.5 84 1.2 NW 2 6 1 3 1010.6 1010.7 8.0
04/01:30am 10.9 8.5 6.8 76 1.9 NW 9 13 5 7 1010.4 1010.5 8.0
04/01:00am 10.8 8.5 7.3 79 1.7 NW 9 13 5 7 1010.3 1010.4 8.0
04/12:30am 9.1 8.7 8.2 94 0.4 CALM 0 7 0 4 1010.1 1010.2 8.0
04/12:00am 7.9 7.1 6.7 92 0.6 CALM 0 0 0 0 1009.8 1009.9 8.0
 
Date/Time
EST
Tmp

°C
App
Tmp
°C
Dew
Point
°C
Rel
Hum
%
Delta-T

°C
Wind Press
QNH
hPa
Press
MSL
hPa
Rain
since
9 am
mm
Dir
 
Spd
km/h
Gust
km/h
Spd
kts
Gust
kts
03/11:30pm 8.5 7.7 6.6 88 0.9 CALM 0 0 0 0 1009.4 1009.5 8.0
03/11:00pm 10.2 9.9 8.5 89 0.8 CALM 0 6 0 3 1009.3 1009.4 8.0
03/10:30pm 10.9 9.4 9.0 88 0.9 N 7 9 4 5 1009.0 1009.1 8.0
03/10:00pm 11.2 9.0 9.3 88 1.0 NNE 11 17 6 9 1008.6 1008.7 8.0
03/09:30pm 11.3 8.8 9.7 90 0.8 NNE 13 19 7 10 1008.3 1008.4 8.0
03/09:00pm 11.4 9.5 9.1 86 1.2 NNW 9 19 5 10 1008.2 1008.3 8.0
03/08:30pm 11.9 10.5 11.0 94 0.5 NNW 9 13 5 7 1007.8 1007.9 7.6
03/08:00pm 12.0 11.7 11.5 97 0.3 N 4 9 2 5 1007.5 1007.6 7.6
03/07:30pm 12.0 11.3 11.5 97 0.3 N 6 7 3 4 1007.0 1007.0 7.4
03/07:00pm 12.0 12.0 11.2 95 0.4 ENE 2 6 1 3 1006.3 1006.3 7.4
03/06:30pm 12.2 12.3 11.4 95 0.4 SSW 2 7 1 4 1005.5 1005.5 7.4
03/06:00pm 12.2 10.9 11.1 93 0.6 WNW 9 19 5 10 1004.6 1004.6 5.8
03/05:30pm 12.1 7.8 10.8 92 0.7 W 24 41 13 22 1004.2 1004.2 4.8
03/05:00pm 15.5 12.5 11.9 79 2.0 N 19 44 10 24 1002.4 1002.4 1.2
03/04:30pm 13.9 10.6 12.8 93 0.6 N 22 35 12 19 1002.3 1002.3 1.2
03/04:00pm 14.3 9.5 11.5 83 1.5 NNW 28 39 15 21 1002.1 1002.1 0.0
03/03:34pm 15.8 10.6 10.3 70 2.9 N 28 44 15 24 1001.1 1001.2 0.0
03/03:30pm 15.9 10.3 10.2 69 3.0 N 30 46 16 25 1001.0 1001.1 0.0
03/03:18pm 16.5 10.8 9.7 64 3.6 N 30 48 16 26 1000.9 1001.0 0.0
03/03:00pm 16.5 10.8 9.7 64 3.6 N 30 43 16 23 1000.7 1000.8 0.0
03/02:30pm 16.7 9.9 9.4 62 3.8 N 35 59 19 32 1001.0 1001.1 0.0
03/02:00pm 17.3 10.9 9.2 59 4.3 NNW 33 54 18 29 1000.6 1000.7 0.0
03/01:30pm 18.3 11.8 8.3 52 5.2 N 32 56 17 30 1000.3 1000.4 0.0
03/01:00pm 18.7 12.2 8.1 50 5.5 N 32 54 17 29 1000.5 1000.6 0.0
03/12:30pm 19.4 11.7 8.7 50 5.6 N 39 61 21 33 1000.7 1000.8 0.0
03/12:00pm 18.5 11.3 7.6 49 5.6 NNW 35 54 19 29 1001.8 1001.8 0.0
03/11:30am 18.6 10.9 7.1 47 5.8 N 37 59 20 32 1001.8 1001.8 0.0
03/11:00am 19.8 12.4 8.2 47 6.1 N 37 61 20 33 1002.2 1002.2 0.0
03/10:31am 18.8 12.2 7.6 48 5.7 N 32 50 17 27 1002.9 1002.9 0.0
03/10:30am 18.8 12.0 7.6 48 5.7 N 33 50 18 27 1002.9 1002.9 0.0
03/10:00am 17.9 11.1 6.7 48 5.6 N 32 54 17 29 1003.3 1003.3 0.0
03/09:43am 17.6 11.5 6.5 48 5.5 N 28 46 15 25 1003.6 1003.6 0.0
03/09:30am 17.4 12.2 7.2 51 5.1 N 24 43 13 23 1003.3 1003.3 0.0
03/09:00am 16.3 9.6 7.3 55 4.5 N 32 52 17 28 1003.4 1003.4 0.0
03/08:40am 16.0 9.5 6.7 54 4.6 N 30 48 16 26 1004.1 1004.1 0.0
03/08:30am 15.8 9.7 6.8 55 4.4 N 28 41 15 22 1004.4 1004.4 0.0
03/08:00am 15.5 8.9 6.2 54 4.5 N 30 43 16 23 1004.4 1004.4 0.0
03/07:30am 15.3 9.1 6.1 54 4.5 N 28 46 15 25 1004.3 1004.3 0.0
03/07:18am 14.9 7.7 6.0 55 4.3 N 33 52 18 28 1004.4 1004.4 0.0
03/07:00am 15.1 8.5 5.9 54 4.4 N 30 44 16 24 1004.6 1004.6 0.0
03/06:47am 15.0 8.3 5.8 54 4.4 N 30 50 16 27 1004.5 1004.5 0.0
03/06:30am 14.4 8.5 5.7 56 4.1 N 26 44 14 24 1004.5 1004.5 0.0
03/06:09am 14.4 7.7 5.7 56 4.1 N 30 50 16 27 1004.7 1004.7 0.0
03/06:00am 14.2 7.1 5.6 56 4.1 N 32 46 17 25 1004.5 1004.5 0.0
03/05:30am 14.6 8.3 5.7 55 4.2 N 28 39 15 21 1004.7 1004.7 0.0
03/05:00am 14.7 8.4 5.5 54 4.4 N 28 41 15 22 1005.0 1005.0 0.0
03/04:30am 14.9 8.6 5.7 54 4.4 N 28 41 15 22 1005.2 1005.2 0.0
03/04:00am 14.8 8.9 5.6 54 4.4 N 26 37 14 20 1005.8 1005.8 0.0
03/03:30am 15.2 10.0 5.4 52 4.7 N 22 41 12 22 1006.2 1006.2 0.0
03/03:00am 15.3 10.6 5.2 51 4.8 N 19 28 10 15 1006.3 1006.3 0.0
03/02:30am 15.4 9.7 5.0 50 4.9 N 24 39 13 21 1006.5 1006.5 0.0
03/02:00am 15.7 9.3 5.0 49 5.1 N 28 50 15 27 1006.6 1006.6 0.0
03/01:48am 15.7 9.3 5.3 50 5.0 N 28 46 15 25 1007.0 1007.0 0.0
03/01:30am 15.4 10.2 5.3 51 4.8 N 22 39 12 21 1007.0 1007.0 0.0
03/01:00am 15.5 9.1 5.4 51 4.8 N 28 43 15 23 1007.5 1007.6 0.0
03/12:30am 15.1 9.9 5.6 53 4.5 N 22 37 12 20 1007.9 1008.0 0.0
03/12:00am 15.0 9.7 5.2 52 4.7 N 22 39 12 21 1008.2 1008.3 0.0
 
Date/Time
EST
Tmp

°C
App
Tmp
°C
Dew
Point
°C
Rel
Hum
%
Delta-T

°C
Wind Press
QNH
hPa
Press
MSL
hPa
Rain
since
9 am
mm
Dir
 
Spd
km/h
Gust
km/h
Spd
kts
Gust
kts
02/11:30pm 15.0 9.7 5.2 52 4.6 N 22 35 12 19 1008.4 1008.5 0.0
02/11:00pm 14.8 9.9 5.1 52 4.6 N 20 37 11 20 1008.7 1008.8 0.0
02/10:30pm 14.4 9.5 5.2 54 4.3 N 20 32 11 17 1008.7 1008.8 0.0
02/10:00pm 14.1 9.3 5.5 56 4.1 N 20 30 11 16 1009.3 1009.4 0.0
02/09:30pm 14.2 9.0 5.6 56 4.1 N 22 37 12 20 1009.4 1009.5 0.0
02/09:19pm 14.5 8.2 5.6 55 4.2 N 28 48 15 26 1008.9 1009.0 0.0
02/09:00pm 14.1 8.2 5.7 57 4.0 N 26 39 14 21 1009.4 1009.5 0.0
02/08:30pm 14.0 9.3 5.9 58 3.9 NNW 20 37 11 20 1009.9 1010.0 0.0
02/08:00pm 14.2 9.4 5.8 57 4.0 N 20 33 11 18 1009.8 1009.9 0.0
02/07:30pm 14.3 8.8 5.9 57 4.0 N 24 37 13 20 1009.5 1009.6 0.0
02/07:00pm 14.2 9.1 6.1 58 3.9 N 22 35 12 19 1009.8 1009.9 0.0
02/06:30pm 13.7 8.9 5.8 59 3.8 N 20 28 11 15 1010.0 1010.1 0.0
02/06:00pm 13.8 9.3 5.9 59 3.8 N 19 28 10 15 1010.2 1010.3 0.0
02/05:30pm 13.9 9.8 6.3 60 3.7 N 17 26 9 14 1010.2 1010.3 0.0
02/05:00pm 15.1 10.5 6.4 56 4.2 N 20 30 11 16 1010.2 1010.3 0.0
02/04:30pm 15.5 11.0 6.8 56 4.3 N 20 33 11 18 1010.3 1010.4 0.0
02/04:00pm 15.7 10.5 7.2 57 4.2 N 24 39 13 21 1010.4 1010.5 0.0
02/03:30pm 15.9 10.4 7.7 58 4.1 N 26 35 14 19 1010.6 1010.7 0.0
02/03:00pm 16.0 9.6 7.0 55 4.5 N 30 43 16 23 1010.6 1010.7 0.0
02/02:30pm 16.8 10.8 6.9 52 4.9 NNW 28 48 15 26 1010.8 1010.9 0.0
02/02:09pm 16.4 9.7 5.4 48 5.3 N 30 54 16 29 1010.7 1010.8 0.0
02/02:00pm 16.3 11.0 7.0 54 4.6 N 24 39 13 21 1010.7 1010.8 0.0
02/01:30pm 15.7 9.9 6.4 54 4.5 N 26 37 14 20 1010.8 1010.9 0.0
02/01:13pm 15.4 9.4 7.2 58 4.1 N 28 46 15 25 1010.9 1011.0 0.0
02/01:00pm 14.9 8.4 6.5 57 4.1 N 30 46 16 25 1011.2 1011.3 0.0
02/12:48pm 14.7 8.4 5.8 55 4.3 N 28 46 15 25 1011.6 1011.7 0.0
02/12:30pm 14.7 8.8 6.0 56 4.2 N 26 35 14 19 1011.9 1012.0 0.0
02/12:00pm 13.9 9.3 6.5 61 3.6 N 20 33 11 18 1012.5 1012.6 0.0
02/11:30am 13.1 7.5 5.3 59 3.6 N 24 37 13 20 1013.3 1013.4 0.0
02/11:00am 12.9 7.2 5.1 59 3.6 N 24 35 13 19 1013.4 1013.5 0.0
02/10:30am 13.3 7.6 5.0 57 3.9 N 24 39 13 21 1013.6 1013.7 0.0
02/10:00am 13.2 8.4 5.6 60 3.6 N 20 32 11 17 1013.7 1013.8 0.0
02/09:30am 12.9 8.8 6.3 64 3.2 N 17 30 9 16 1013.9 1014.0 0.0
02/09:00am 12.3 7.9 6.4 67 2.8 N 19 30 10 16 1014.2 1014.2 2.0
02/08:30am 11.1 6.5 5.6 69 2.5 N 19 30 10 16 1014.4 1014.4 -
02/08:00am 10.1 6.7 5.9 75 1.9 N 13 22 7 12 1014.1 1014.1 -
02/07:30am 8.4 4.8 5.2 80 1.4 N 13 20 7 11 1014.1 1014.1 -
02/07:00am 7.7 4.4 4.5 80 1.4 N 11 17 6 9 1013.9 1014.0 -
02/06:30am 7.2 3.5 4.2 81 1.3 N 13 20 7 11 1014.1 1014.1 -
02/06:00am 7.1 3.4 4.4 83 1.2 N 13 20 7 11 1014.4 1014.4 -
02/05:30am 6.9 3.4 5.5 91 0.6 N 13 20 7 11 1014.5 1014.5 -
02/05:20am 6.7 3.8 6.6 99 0.0 N 11 19 6 10 1014.4 1014.4 -
02/05:00am 1.7 -1.2 1.3 97 0.2 N 6 9 3 5 1014.4 1014.4 -
02/04:30am 1.6 -0.9 1.3 98 0.1 NNW 4 7 2 4 1014.3 1014.3 -
02/04:00am 1.6 -0.6 1.2 97 0.2 NW 2 7 1 4 1014.3 1014.3 -
02/03:30am 1.7 -0.1 1.3 97 0.2 CALM 0 0 0 0 1014.6 1014.6 -
02/03:00am 1.4 -0.4 1.0 97 0.2 CALM 0 0 0 0 1014.8 1014.8 0.0
02/02:30am 2.3 0.6 1.9 97 0.2 CALM 0 0 0 0 1014.9 1014.9 -
02/02:00am 2.3 0.6 1.9 97 0.2 CALM 0 6 0 3 1015.0 1015.0 -
02/01:30am 2.7 1.1 2.3 97 0.2 CALM 0 0 0 0 1015.4 1015.4 -
02/01:00am 2.5 0.4 1.9 96 0.2 SSW 2 7 1 4 1015.7 1015.7 -
02/12:30am 2.8 1.2 2.2 96 0.2 CALM 0 0 0 0 1016.0 1016.0 -
02/12:00am 3.3 1.0 2.7 96 0.2 S 4 7 2 4 1016.3 1016.3 -
 
Date/Time
EST
Tmp

°C
App
Tmp
°C
Dew
Point
°C
Rel
Hum
%
Delta-T

°C
Wind Press
QNH
hPa
Press
MSL
hPa
Rain
since
9 am
mm
Dir
 
Spd
km/h
Gust
km/h
Spd
kts
Gust
kts
01/11:30pm 3.5 2.0 2.8 95 0.3 CALM 0 0 0 0 1016.2 1016.2 -
01/11:00pm 3.4 1.8 2.5 94 0.4 CALM 0 0 0 0 1016.4 1016.4 -
01/10:30pm 4.4 3.0 3.5 94 0.4 CALM 0 6 0 3 1016.6 1016.6 -
01/10:00pm 4.8 3.4 3.8 93 0.4 CALM 0 0 0 0 1016.3 1016.3 -
01/09:30pm 4.9 3.5 3.7 92 0.5 CALM 0 0 0 0 1016.2 1016.2 -
01/09:00pm 5.5 4.2 4.2 91 0.6 CALM 0 0 0 0 1016.1 1016.1 -
01/08:30pm 6.5 5.2 4.2 85 1.0 CALM 0 0 0 0 1015.9 1015.9 -
01/08:00pm 8.3 6.0 4.9 79 1.5 NNW 6 9 3 5 1015.6 1015.6 -
01/07:30pm 7.9 6.6 4.3 78 1.6 CALM 0 0 0 0 1015.4 1015.4 -
01/07:00pm 9.1 7.4 5.7 79 1.6 NNW 4 9 2 5 1015.0 1015.0 -
01/06:30pm 9.9 7.7 5.5 74 2.0 N 6 9 3 5 1014.5 1014.5 -
01/06:00pm - - - - - - - - - - 1014.2 1014.2 -
01/05:30pm - - - - - - - - - - 1013.7 1013.8 -
01/05:00pm - - - - - - - - - - 1013.4 1013.5 -
01/04:30pm - - - - - - - - - - 1013.0 1013.1 -
01/04:00pm - - - - - - - - - - 1012.2 1012.3 -
01/03:30pm 14.2 8.3 5.6 56 4.1 W 26 39 14 21 1011.5 1011.6 2.0
01/03:00pm 13.9 10.0 7.2 64 3.3 NW 17 26 9 14 1011.1 1011.2 2.0
01/02:30pm 14.4 9.9 6.3 58 3.9 WNW 19 26 10 14 1010.6 1010.7 2.0
01/02:00pm 14.3 9.0 6.6 60 3.7 WNW 24 43 13 23 1010.2 1010.3 2.0
01/01:30pm 13.9 9.7 8.1 68 2.9 WNW 20 32 11 17 1010.0 1010.1 2.0
01/01:00pm 12.3 8.7 9.9 85 1.2 WNW 19 33 10 18 1009.7 1009.8 2.0
01/12:44pm 11.6 6.0 8.8 83 1.4 WNW 28 46 15 25 1009.7 1009.8 1.8
01/12:30pm 15.0 9.0 7.1 59 3.9 WNW 28 44 15 24 1008.8 1008.9 0.0
01/12:00pm 16.5 10.5 7.2 54 4.7 NW 28 41 15 22 1008.6 1008.7 0.0
01/11:30am 15.5 10.9 8.3 62 3.6 NW 22 35 12 19 1008.7 1008.8 0.0
01/11:02am 15.3 9.1 6.1 54 4.5 NW 28 48 15 26 1008.7 1008.8 0.0
01/11:00am 15.5 9.8 6.5 55 4.4 NW 26 48 14 26 1008.7 1008.8 0.0
01/10:30am 15.1 10.0 7.6 61 3.7 NW 24 44 13 24 1008.5 1008.6 0.0
01/10:09am 15.4 9.4 7.2 58 4.1 NW 28 46 15 25 1008.1 1008.2 0.0
01/10:00am 16.1 10.3 8.1 59 4.1 NW 28 44 15 24 1008.0 1008.1 0.0
01/09:44am 15.7 9.8 7.7 59 4.0 NW 28 48 15 26 1007.7 1007.7 0.0
01/09:30am 15.7 10.7 8.0 60 3.9 NW 24 44 13 24 1007.5 1007.5 0.0
01/09:02am 15.1 9.4 8.3 64 3.4 NW 28 46 15 25 1007.1 1007.1 0.0
01/09:00am 15.1 8.9 7.9 62 3.6 NW 30 46 16 25 1007.0 1007.0 7.0
01/08:30am 15.1 8.8 7.6 61 3.7 NW 30 54 16 29 1006.6 1006.5 7.0
01/08:13am 15.3 9.8 9.0 66 3.2 NW 28 46 15 25 1006.4 1006.3 7.0
01/08:00am 15.1 11.3 9.2 68 3.0 NNW 19 32 10 17 1006.1 1006.0 7.0
01/07:30am 14.0 11.4 10.8 81 1.7 NNW 15 20 8 11 1005.5 1005.4 7.0
01/07:00am 14.3 11.7 10.7 79 1.9 N 15 22 8 12 1005.0 1004.9 7.0
01/06:30am 14.7 11.3 11.3 80 1.8 N 20 32 11 17 1005.2 1005.1 7.0

Latest Capital City Observations: Canberra | Sydney | Melbourne | Brisbane | Adelaide | Perth | Hobart | Darwin

Other Formats:

Comma delimited format used in spreadsheet applications
http://www.bom.gov.au/fwo/IDV60901/IDV60901.94864.axf

JavaScript Object Notation format (JSON) in row-major order
http://www.bom.gov.au/fwo/IDV60901/IDV60901.94864.json